Time;durP1;ratioP1;P1;durP2;ratioP2;P2;SDS_P1;SDS_P2;PMS_P1;PMS_P2;Temp;Humidity;BMP_temperature;BMP_pressure;BME280_temperature;BME280_humidity;BME280_pressure;Samples;Min_cycle;Max_cycle;Signal;HPM_P1;HPM_P2
2022/09/28 00:01:10;;;;;;;5.83;5.03;;;27.70;75.10;;;;;;5146276;27;20450;-66
2022/09/28 00:03:41;;;;;;;4.60;4.20;;;27.60;74.00;;;;;;5142318;27;20514;-66
2022/09/28 00:06:14;;;;;;;6.47;4.80;;;27.60;74.20;;;;;;5146151;27;20553;-66
2022/09/28 00:08:45;;;;;;;4.93;4.47;;;27.50;74.90;;;;;;5145900;27;20477;-67
2022/09/28 00:11:17;;;;;;;4.83;4.43;;;27.30;76.00;;;;;;5145495;27;20859;-66
2022/09/28 00:13:51;;;;;;;4.83;4.37;;;27.30;75.30;;;;;;5145999;27;20453;-66
2022/09/28 00:16:26;;;;;;;4.93;4.40;;;27.30;74.70;;;;;;5145817;27;20453;-66
2022/09/28 00:18:57;;;;;;;5.37;4.63;;;27.30;75.40;;;;;;5145526;27;20527;-66
2022/09/28 00:21:29;;;;;;;4.60;4.20;;;27.20;76.40;;;;;;5145123;27;20520;-66
2022/09/28 00:24:15;;;;;;;4.63;4.10;;;27.10;77.30;;;;;;5146046;27;20440;-66
2022/09/28 00:26:48;;;;;;;4.90;4.37;;;26.90;76.40;;;;;;5144924;27;20452;-66
2022/09/28 00:29:25;;;;;;;4.87;4.47;;;26.90;75.90;;;;;;5141909;27;20513;-66
2022/09/28 00:31:59;;;;;;;4.97;4.47;;;26.80;75.20;;;;;;5144780;27;20483;-66
2022/09/28 00:34:31;;;;;;;5.53;4.57;;;26.70;76.30;;;;;;5144330;27;20449;-65
2022/09/28 00:37:03;;;;;;;4.50;4.10;;;26.70;75.60;;;;;;5124307;27;20470;-66
2022/09/28 00:39:34;;;;;;;5.33;4.47;;;26.50;74.90;;;;;;5139887;27;20453;-66
2022/09/28 00:42:13;;;;;;;5.13;4.67;;;26.60;73.30;;;;;;5140259;27;20489;-66
2022/09/28 00:44:47;;;;;;;5.00;4.50;;;26.60;73.80;;;;;;5124714;27;20758;-65
2022/09/28 00:47:42;;;;;;;4.53;4.17;;;26.60;73.90;;;;;;5140820;27;20461;-65
2022/09/28 00:50:17;;;;;;;5.17;4.70;;;26.40;74.70;;;;;;5123713;27;20518;-66
2022/09/28 00:52:53;;;;;;;5.57;4.53;;;26.30;74.80;;;;;;5133064;27;20535;-64
2022/09/28 00:55:29;;;;;;;5.87;4.53;;;26.40;74.40;;;;;;5144482;27;20457;-65
2022/09/28 00:58:03;;;;;;;5.20;4.80;;;26.30;75.50;;;;;;5145343;27;20452;-65
2022/09/28 01:00:34;;;;;;;4.70;4.30;;;26.10;76.00;;;;;;5134641;27;20475;-66
2022/09/28 01:03:06;;;;;;;4.97;4.57;;;26.10;75.70;;;;;;5144681;27;20488;-65
2022/09/28 01:05:39;;;;;;;5.60;4.87;;;26.20;73.60;;;;;;5144233;27;20985;-67
2022/09/28 01:08:10;;;;;;;5.60;4.73;;;26.20;74.10;;;;;;5149094;27;20838;-64
2022/09/28 01:10:43;;;;;;;5.23;4.20;;;26.10;74.00;;;;;;5144227;27;20446;-68
2022/09/28 01:13:15;;;;;;;6.13;4.77;;;26.10;74.50;;;;;;5144163;27;20539;-65
2022/09/28 01:15:56;;;;;;;4.40;4.00;;;26.10;74.00;;;;;;5140830;27;20567;-65
2022/09/28 01:18:38;;;;;;;5.23;4.73;;;26.20;74.70;;;;;;5125945;27;20454;-66
2022/09/28 01:21:16;;;;;;;5.63;4.80;;;26.10;74.70;;;;;;5144954;27;20448;-66
2022/09/28 01:24:12;;;;;;;5.00;4.10;;;25.80;77.30;;;;;;5141427;27;20469;-66
2022/09/28 01:27:07;;;;;;;5.03;4.43;;;25.60;77.20;;;;;;5135715;27;20455;-67
2022/09/28 01:29:47;;;;;;;5.10;4.20;;;25.40;77.30;;;;;;5143313;27;20457;-65
2022/09/28 01:32:29;;;;;;;5.80;5.20;;;25.30;77.60;;;;;;5131660;27;20520;-66
2022/09/28 01:35:06;;;;;;;5.90;5.17;;;25.20;79.90;;;;;;5135961;27;20454;-68
2022/09/28 01:37:42;;;;;;;6.23;4.37;;;25.20;80.00;;;;;;5142819;27;20503;-67
2022/09/28 01:40:15;;;;;;;4.53;4.13;;;25.10;78.60;;;;;;5143510;27;20506;-68
2022/09/28 01:42:50;;;;;;;6.07;4.70;;;25.00;79.60;;;;;;5140866;27;20461;-67
2022/09/28 01:45:24;;;;;;;4.40;4.00;;;25.00;79.10;;;;;;5144235;27;20453;-64
2022/09/28 01:48:00;;;;;;;5.77;5.27;;;24.80;80.90;;;;;;5112299;27;20871;-65
2022/09/28 01:50:36;;;;;;;6.27;4.57;;;24.60;82.80;;;;;;5131337;27;20467;-66
2022/09/28 01:53:11;;;;;;;5.40;4.30;;;24.30;83.10;;;;;;5125639;27;21086;-67
2022/09/28 01:55:46;;;;;;;6.50;4.90;;;24.10;84.30;;;;;;5111019;27;20454;-66
2022/09/28 01:58:23;;;;;;;6.10;4.80;;;24.00;84.90;;;;;;5144463;27;20437;-67
2022/09/28 02:01:00;;;;;;;4.60;4.20;;;23.80;86.70;;;;;;5142140;27;20502;-68
2022/09/28 02:03:37;;;;;;;5.53;4.13;;;23.80;86.60;;;;;;5111761;27;20474;-67
2022/09/28 02:06:14;;;;;;;4.77;4.27;;;23.70;86.50;;;;;;5132588;27;20453;-68
2022/09/28 02:08:50;;;;;;;4.63;4.03;;;23.50;88.20;;;;;;5117002;27;20511;-68
2022/09/28 02:11:23;;;;;;;5.00;4.50;;;23.30;90.00;;;;;;5111000;27;20784;-68
2022/09/28 02:14:02;;;;;;;4.03;3.57;;;23.20;91.10;;;;;;5143026;27;20485;-68
2022/09/28 02:16:39;;;;;;;5.17;4.77;;;23.00;91.10;;;;;;5134666;27;20527;-68
2022/09/28 02:19:13;;;;;;;5.00;4.47;;;22.90;90.30;;;;;;5130848;27;20500;-68
2022/09/28 02:21:54;;;;;;;4.87;4.47;;;22.80;91.10;;;;;;5142865;27;20600;-69
2022/09/28 02:24:29;;;;;;;4.40;3.80;;;22.70;92.10;;;;;;5140561;27;20452;-67
2022/09/28 02:27:03;;;;;;;4.60;3.83;;;22.60;92.90;;;;;;5143030;27;20493;-69
2022/09/28 02:29:36;;;;;;;4.07;3.70;;;22.60;92.80;;;;;;5143199;27;20456;-68
2022/09/28 02:32:07;;;;;;;4.73;4.30;;;22.50;93.50;;;;;;5143726;27;20522;-70
2022/09/28 02:34:38;;;;;;;4.97;4.47;;;22.40;94.60;;;;;;5108223;27;20544;-67
2022/09/28 02:37:08;;;;;;;3.90;3.60;;;22.30;95.70;;;;;;5122374;27;20444;-68
2022/09/28 02:39:39;;;;;;;5.47;4.83;;;22.10;96.80;;;;;;5133683;27;20447;-68
2022/09/28 02:42:20;;;;;;;4.20;3.83;;;22.00;97.60;;;;;;5123969;27;20450;-69
2022/09/28 02:45:03;;;;;;;4.70;3.90;;;21.90;98.30;;;;;;5112273;27;20453;-68
2022/09/28 02:47:52;;;;;;;4.30;3.67;;;21.90;98.80;;;;;;5122764;27;20627;-68
2022/09/28 02:50:30;;;;;;;5.83;3.60;;;21.70;99.50;;;;;;5142963;27;20501;-68
2022/09/28 02:53:33;;;;;;;3.93;3.63;;;21.50;99.90;;;;;;5131665;27;20529;-68
2022/09/28 02:56:17;;;;;;;4.00;3.47;;;21.40;99.90;;;;;;5141976;27;20473;-69
2022/09/28 02:58:59;;;;;;;3.40;3.10;;;21.20;99.90;;;;;;5122467;27;20876;-73
2022/09/28 03:01:41;;;;;;;3.77;3.40;;;21.10;99.90;;;;;;5136334;27;20567;-69
2022/09/28 03:04:20;;;;;;;3.77;2.97;;;20.90;99.90;;;;;;5137486;28;20468;-69
2022/09/28 03:06:56;;;;;;;3.77;3.40;;;20.70;99.90;;;;;;5135727;27;20470;-69
2022/09/28 03:09:34;;;;;;;3.83;3.50;;;20.70;99.90;;;;;;5139150;27;20455;-68
2022/09/28 03:12:10;;;;;;;3.60;3.30;;;20.50;99.90;;;;;;5129967;28;20461;-68
2022/09/28 03:14:41;;;;;;;4.10;3.70;;;20.40;99.90;;;;;;5136827;27;20493;-67
2022/09/28 03:17:13;;;;;;;3.60;2.93;;;20.30;99.90;;;;;;5143217;27;20452;-67
2022/09/28 03:19:44;;;;;;;2.87;2.67;;;20.20;99.90;;;;;;5133473;27;20465;-67
2022/09/28 03:22:15;;;;;;;3.10;2.90;;;20.10;99.90;;;;;;5139845;27;21022;-67
2022/09/28 03:24:46;;;;;;;3.30;3.03;;;20.00;99.90;;;;;;5117182;27;20428;-67
2022/09/28 03:27:16;;;;;;;3.60;3.13;;;20.00;99.90;;;;;;5121563;27;20453;-67
2022/09/28 03:29:47;;;;;;;3.00;2.63;;;20.00;99.90;;;;;;5123722;27;20449;-65
2022/09/28 03:32:20;;;;;;;3.83;3.53;;;19.90;99.90;;;;;;5123159;27;20473;-66
2022/09/28 03:34:50;;;;;;;3.17;2.87;;;19.80;99.90;;;;;;5128786;27;20460;-67
2022/09/28 03:37:21;;;;;;;3.63;3.20;;;19.70;99.90;;;;;;5129891;27;20893;-67
2022/09/28 03:39:52;;;;;;;2.60;2.40;;;19.60;99.90;;;;;;5116605;27;20496;-66
2022/09/28 03:42:24;;;;;;;3.20;2.90;;;19.60;99.90;;;;;;5130630;27;20476;-67
2022/09/28 03:44:56;;;;;;;3.40;2.60;;;19.40;99.90;;;;;;5115614;27;20456;-67
2022/09/28 03:47:28;;;;;;;3.60;3.30;;;19.40;99.90;;;;;;5121927;27;20764;-68
2022/09/28 03:49:59;;;;;;;3.57;2.93;;;19.40;99.90;;;;;;5126901;27;20440;-69
2022/09/28 03:52:29;;;;;;;3.37;3.07;;;19.20;99.90;;;;;;5117985;27;20473;-67
2022/09/28 03:55:00;;;;;;;2.70;2.50;;;19.10;99.90;;;;;;5126939;27;20493;-68
2022/09/28 03:57:31;;;;;;;2.73;2.40;;;19.00;99.90;;;;;;5127573;27;20415;-66
2022/09/28 04:00:02;;;;;;;3.80;2.90;;;19.00;99.90;;;;;;5125873;27;20449;-65
2022/09/28 04:02:35;;;;;;;3.47;3.07;;;19.00;99.90;;;;;;5128795;27;20507;-69
2022/09/28 04:05:07;;;;;;;3.80;3.10;;;18.90;99.90;;;;;;5123709;27;20423;-67
2022/09/28 04:07:37;;;;;;;2.80;2.60;;;18.80;99.90;;;;;;5111498;27;20519;-66
2022/09/28 04:10:09;;;;;;;3.40;3.03;;;18.80;99.90;;;;;;5115654;27;20443;-66
2022/09/28 04:12:40;;;;;;;3.13;2.80;;;18.80;99.90;;;;;;5137353;27;20522;-66
2022/09/28 04:15:11;;;;;;;2.47;2.27;;;18.80;99.90;;;;;;5129264;27;20480;-69
2022/09/28 04:17:44;;;;;;;4.07;2.93;;;18.60;99.90;;;;;;5140636;27;20731;-67
2022/09/28 04:20:15;;;;;;;3.43;2.57;;;18.60;99.90;;;;;;5145671;27;20832;-66
2022/09/28 04:22:46;;;;;;;2.47;2.27;;;18.50;99.90;;;;;;5126072;27;20487;-67
2022/09/28 04:25:17;;;;;;;2.70;2.50;;;18.40;99.90;;;;;;5141603;27;20499;-68
2022/09/28 04:30:35;;;;;;;2.60;2.40;;;18.40;99.90;;;;;;5139940;27;20431;-66
2022/09/28 04:33:08;;;;;;;3.50;2.40;;;18.40;99.90;;;;;;5144984;27;20827;-66
2022/09/28 04:35:39;;;;;;;5.13;2.50;;;18.30;99.90;;;;;;5144893;27;20459;-67
2022/09/28 04:38:10;;;;;;;3.30;3.00;;;18.30;99.90;;;;;;5145340;27;20457;-67
2022/09/28 04:40:41;;;;;;;2.27;2.07;;;18.20;99.90;;;;;;5128886;27;20447;-67
2022/09/28 04:43:11;;;;;;;4.73;2.60;;;18.10;99.90;;;;;;5140881;27;20416;-66
2022/09/28 04:45:42;;;;;;;2.77;2.13;;;18.10;99.90;;;;;;5144530;27;20440;-66
2022/09/28 04:48:15;;;;;;;2.10;1.93;;;18.00;99.90;;;;;;5125322;27;20551;-66
2022/09/28 04:50:55;;;;;;;2.33;2.10;;;18.00;99.90;;;;;;5143452;27;20453;-66
2022/09/28 04:53:26;;;;;;;3.10;2.80;;;18.00;99.90;;;;;;5118094;27;20492;-66
2022/09/28 04:55:59;;;;;;;2.40;2.20;;;18.00;99.90;;;;;;5131317;27;20549;-66
2022/09/28 04:58:31;;;;;;;2.23;2.03;;;18.00;99.90;;;;;;5142501;27;20788;-66
2022/09/28 05:01:03;;;;;;;2.60;2.40;;;18.00;99.90;;;;;;5145177;27;20418;-66
2022/09/28 05:03:36;;;;;;;2.57;2.37;;;18.00;99.90;;;;;;5137227;27;20468;-66
2022/09/28 05:06:07;;;;;;;2.40;2.00;;;17.90;99.90;;;;;;5144386;27;20452;-66
2022/09/28 05:08:38;;;;;;;2.53;2.00;;;17.90;99.90;;;;;;5141334;27;20432;-66
2022/09/28 05:11:11;;;;;;;2.07;1.87;;;17.70;99.90;;;;;;5139918;27;21024;-66
2022/09/28 05:13:44;;;;;;;3.07;2.40;;;17.60;99.90;;;;;;5130541;27;20438;-66
2022/09/28 05:16:16;;;;;;;2.03;1.83;;;17.40;99.90;;;;;;5129188;27;20575;-66
2022/09/28 05:18:48;;;;;;;2.60;2.30;;;17.40;99.90;;;;;;5139043;27;20462;-66
2022/09/28 05:21:19;;;;;;;2.73;1.83;;;17.40;99.90;;;;;;5126707;27;20485;-66
2022/09/28 05:23:50;;;;;;;2.13;1.93;;;17.50;99.90;;;;;;5139142;27;20448;-66
2022/09/28 05:26:21;;;;;;;2.30;1.67;;;17.40;99.90;;;;;;5137723;27;20444;-66
2022/09/28 05:28:51;;;;;;;2.63;2.40;;;17.30;99.90;;;;;;5111164;27;20496;-66
2022/09/28 05:31:22;;;;;;;2.50;2.30;;;17.30;99.90;;;;;;5135323;27;20439;-66
2022/09/28 05:33:55;;;;;;;3.13;2.17;;;17.20;99.90;;;;;;5127978;27;20636;-66
2022/09/28 05:36:26;;;;;;;1.90;1.70;;;17.30;99.90;;;;;;5136262;27;20467;-66
2022/09/28 05:38:58;;;;;;;2.53;2.20;;;17.20;99.90;;;;;;5130097;27;20433;-66
2022/09/28 05:41:29;;;;;;;2.73;2.50;;;17.10;99.90;;;;;;5116821;27;20420;-66
2022/09/28 05:43:59;;;;;;;3.50;2.50;;;17.20;99.90;;;;;;5141599;27;20423;-66
2022/09/28 05:46:30;;;;;;;2.20;2.00;;;17.20;99.90;;;;;;5138447;27;20529;-66
2022/09/28 05:49:03;;;;;;;2.23;2.00;;;17.20;99.90;;;;;;5142871;27;20512;-65
2022/09/28 05:51:33;;;;;;;2.63;2.10;;;17.10;99.90;;;;;;5142475;27;20449;-66
2022/09/28 05:54:04;;;;;;;2.80;2.50;;;17.10;99.90;;;;;;5144244;27;20502;-66
2022/09/28 05:56:35;;;;;;;2.50;2.30;;;17.00;99.90;;;;;;5142640;27;20484;-67
2022/09/28 05:59:06;;;;;;;2.30;2.10;;;16.90;99.90;;;;;;5144375;27;20456;-66
2022/09/28 06:01:37;;;;;;;2.13;1.93;;;16.80;99.90;;;;;;5143881;27;20457;-66
2022/09/28 06:04:09;;;;;;;1.77;1.67;;;16.70;99.90;;;;;;5143947;27;20482;-66
2022/09/28 06:06:40;;;;;;;2.50;2.10;;;16.60;99.90;;;;;;5126090;27;20522;-66
2022/09/28 06:09:11;;;;;;;1.80;1.70;;;16.70;99.90;;;;;;5143215;27;20519;-66
2022/09/28 06:11:42;;;;;;;1.80;1.70;;;16.70;99.90;;;;;;5134118;27;20445;-66
2022/09/28 06:14:13;;;;;;;2.10;1.90;;;16.70;99.90;;;;;;5123906;27;20512;-65
2022/09/28 06:16:44;;;;;;;2.57;2.37;;;16.70;99.90;;;;;;5118222;27;20522;-66
2022/09/28 06:19:17;;;;;;;2.50;1.87;;;16.60;99.90;;;;;;5123389;27;20503;-66
2022/09/28 06:21:49;;;;;;;4.70;2.40;;;16.60;99.90;;;;;;5129697;27;20460;-66
2022/09/28 06:24:19;;;;;;;1.83;1.60;;;16.50;99.90;;;;;;5127123;27;20452;-66
2022/09/28 06:26:50;;;;;;;1.80;1.57;;;16.40;99.90;;;;;;5127059;27;20459;-66
2022/09/28 06:29:21;;;;;;;2.33;2.00;;;16.40;99.90;;;;;;5127260;27;20517;-66
2022/09/28 06:31:52;;;;;;;2.50;1.93;;;16.40;99.90;;;;;;5134377;27;20461;-66
2022/09/28 06:34:24;;;;;;;2.30;2.10;;;16.50;99.90;;;;;;5132191;27;20500;-65
2022/09/28 06:36:55;;;;;;;2.53;1.90;;;16.30;99.90;;;;;;5140466;27;20509;-65
2022/09/28 06:39:26;;;;;;;2.20;1.63;;;16.30;99.90;;;;;;5138825;27;20495;-65
2022/09/28 06:41:56;;;;;;;2.77;2.30;;;16.40;99.90;;;;;;5125410;27;20428;-65
2022/09/28 06:44:27;;;;;;;2.27;1.90;;;16.30;99.90;;;;;;5131172;27;20455;-66
2022/09/28 06:47:00;;;;;;;2.10;1.90;;;16.30;99.90;;;;;;5124535;27;20465;-66
2022/09/28 06:49:32;;;;;;;2.17;2.00;;;16.20;99.90;;;;;;5139134;27;20458;-66
2022/09/28 06:52:03;;;;;;;3.10;2.10;;;16.20;99.90;;;;;;5137043;27;20456;-66
2022/09/28 06:54:34;;;;;;;2.10;1.90;;;16.20;99.90;;;;;;5130398;27;20524;-66
2022/09/28 06:57:05;;;;;;;2.23;2.00;;;16.30;99.90;;;;;;5134773;27;20508;-66
2022/09/28 06:59:35;;;;;;;2.33;2.13;;;16.30;99.90;;;;;;5125572;27;20456;-65
2022/09/28 07:02:06;;;;;;;2.23;2.03;;;16.20;99.90;;;;;;5125111;27;20531;-67
2022/09/28 07:04:42;;;;;;;2.10;1.87;;;16.10;99.90;;;;;;5126492;28;20730;-67
2022/09/28 07:07:13;;;;;;;2.93;2.73;;;16.10;99.90;;;;;;5116706;28;20552;-67
2022/09/28 07:09:44;;;;;;;3.17;1.80;;;16.00;99.90;;;;;;5115868;27;20445;-67
2022/09/28 07:12:22;;;;;;;2.43;2.23;;;16.00;99.90;;;;;;5126036;28;20453;-67
2022/09/28 07:14:55;;;;;;;2.43;2.20;;;16.10;99.90;;;;;;5135410;28;20454;-66
2022/09/28 07:17:25;;;;;;;2.10;1.90;;;16.00;99.90;;;;;;5134579;27;20541;-66
2022/09/28 07:19:58;;;;;;;1.70;1.60;;;15.90;99.90;;;;;;5119500;28;20498;-65
2022/09/28 07:22:43;;;;;;;2.13;2.00;;;15.90;99.90;;;;;;5128564;28;20485;-66
2022/09/28 07:25:14;;;;;;;2.07;1.43;;;15.90;99.90;;;;;;5135297;27;20468;-67
2022/09/28 07:27:45;;;;;;;2.40;2.20;;;15.80;99.90;;;;;;5135425;27;20452;-67
2022/09/28 07:30:17;;;;;;;3.07;2.20;;;15.80;99.90;;;;;;5122293;28;20506;-67
2022/09/28 07:32:48;;;;;;;2.07;1.83;;;15.80;99.90;;;;;;5125259;28;20449;-67
2022/09/28 07:35:21;;;;;;;1.90;1.80;;;15.70;99.90;;;;;;5113000;28;20457;-67
2022/09/28 07:37:59;;;;;;;1.90;1.67;;;15.60;99.90;;;;;;5141284;27;20534;-67
2022/09/28 07:43:19;;;;;;;1.60;1.50;;;15.50;99.90;;;;;;5118506;28;20548;-67
2022/09/28 07:45:51;;;;;;;2.37;1.47;;;15.40;99.90;;;;;;5127048;28;20501;-67
2022/09/28 07:48:23;;;;;;;3.10;2.30;;;15.40;99.90;;;;;;5136515;28;21010;-67
2022/09/28 07:50:58;;;;;;;2.70;2.30;;;15.30;99.90;;;;;;5132953;27;20453;-68
2022/09/28 07:53:29;;;;;;;2.40;2.17;;;15.30;99.90;;;;;;5142234;27;20888;-68
2022/09/28 07:56:05;;;;;;;2.00;1.80;;;15.40;99.90;;;;;;5129939;27;20549;-67
2022/09/28 07:58:37;;;;;;;2.30;1.93;;;15.30;99.90;;;;;;5121718;27;20543;-67
2022/09/28 08:01:09;;;;;;;2.10;1.90;;;15.20;99.90;;;;;;5124448;27;20494;-67
2022/09/28 08:03:44;;;;;;;2.80;2.53;;;15.20;99.90;;;;;;5131400;27;20484;-67
2022/09/28 08:06:17;;;;;;;2.17;2.07;;;15.20;99.90;;;;;;5124957;27;20920;-67
2022/09/28 08:08:49;;;;;;;2.30;2.10;;;15.10;99.90;;;;;;5113988;27;20488;-67
2022/09/28 08:11:20;;;;;;;2.40;2.20;;;15.00;99.90;;;;;;5111620;27;20488;-67
2022/09/28 08:13:54;;;;;;;2.17;1.93;;;14.90;99.90;;;;;;5134292;27;20452;-67
2022/09/28 08:16:25;;;;;;;3.00;2.30;;;14.90;99.90;;;;;;5110369;27;20509;-67
2022/09/28 08:18:56;;;;;;;2.70;2.30;;;15.00;99.90;;;;;;5130906;27;20463;-66
2022/09/28 08:21:45;;;;;;;3.80;2.50;;;14.90;99.90;;;;;;5138446;27;20468;-66
2022/09/28 08:24:17;;;;;;;2.90;2.10;;;14.80;99.90;;;;;;5131654;27;20517;-66
2022/09/28 08:26:48;;;;;;;2.83;2.33;;;14.70;99.90;;;;;;5132607;27;20506;-66
2022/09/28 08:29:19;;;;;;;1.93;1.73;;;14.80;99.90;;;;;;5122429;27;20494;-66
2022/09/28 08:31:50;;;;;;;2.03;1.80;;;14.90;99.90;;;;;;5141968;27;21036;-67
2022/09/28 08:34:30;;;;;;;1.97;1.67;;;14.80;99.90;;;;;;5129572;27;20910;-67
2022/09/28 08:37:02;;;;;;;2.20;2.00;;;14.70;99.90;;;;;;5121743;27;20543;-67
2022/09/28 08:39:33;;;;;;;2.30;2.10;;;14.70;99.90;;;;;;5130351;27;20461;-67
2022/09/28 08:42:17;;;;;;;3.07;2.80;;;14.70;99.90;;;;;;5122707;27;21043;-67
2022/09/28 08:44:56;;;;;;;2.20;2.00;;;14.70;99.90;;;;;;5118107;27;20513;-67
2022/09/28 08:50:25;;;;;;;2.33;1.97;;;14.50;99.90;;;;;;5131289;27;20470;-67
2022/09/28 08:53:03;;;;;;;2.57;2.37;;;14.50;99.90;;;;;;5139556;27;20457;-67
2022/09/28 08:55:37;;;;;;;3.40;2.07;;;14.30;99.90;;;;;;5137073;27;20567;-67
2022/09/28 08:58:13;;;;;;;2.20;2.00;;;14.30;99.90;;;;;;5126097;27;20842;-67
2022/09/28 09:00:47;;;;;;;2.33;1.83;;;14.40;99.90;;;;;;5142800;27;20497;-67
2022/09/28 09:03:22;;;;;;;1.73;1.63;;;14.40;99.90;;;;;;5129532;27;20482;-65
2022/09/28 09:06:06;;;;;;;2.20;1.73;;;14.30;99.90;;;;;;5122860;27;20465;-67
2022/09/28 09:08:48;;;;;;;3.33;2.00;;;14.20;99.90;;;;;;5114158;27;20517;-68
2022/09/28 09:11:31;;;;;;;2.70;2.43;;;14.20;99.90;;;;;;5124028;27;20462;-66
2022/09/28 09:14:29;;;;;;;2.43;2.23;;;14.10;99.90;;;;;;5132055;27;20466;-66
2022/09/28 09:17:12;;;;;;;1.50;1.40;;;14.20;99.90;;;;;;5119090;27;20476;-66
2022/09/28 09:19:53;;;;;;;2.83;2.07;;;14.10;99.90;;;;;;5141656;27;20468;-66
2022/09/28 09:22:39;;;;;;;2.33;2.00;;;14.10;99.90;;;;;;5141046;27;20605;-65
2022/09/28 09:25:20;;;;;;;1.43;1.23;;;14.20;99.90;;;;;;5130038;27;20510;-66
2022/09/28 09:28:14;;;;;;;2.50;1.23;;;14.10;99.90;;;;;;5118671;27;20475;-65
2022/09/28 09:30:54;;;;;;;1.73;1.50;;;14.10;99.90;;;;;;5127423;27;20530;-67
2022/09/28 09:33:57;;;;;;;1.40;1.30;;;14.20;99.90;;;;;;5111647;27;20460;-65
2022/09/28 09:36:42;;;;;;;1.73;1.50;;;14.10;99.90;;;;;;5128518;27;20456;-66
2022/09/28 09:39:25;;;;;;;1.77;1.50;;;14.10;99.90;;;;;;5133438;27;20900;-66
2022/09/28 09:42:09;;;;;;;2.20;1.57;;;14.10;99.90;;;;;;5121238;27;20449;-66
2022/09/28 09:44:55;;;;;;;1.43;1.30;;;14.10;99.90;;;;;;5136444;27;20529;-66
2022/09/28 09:47:31;;;;;;;1.90;1.80;;;14.10;99.90;;;;;;5140481;27;20513;-66
2022/09/28 09:50:13;;;;;;;1.83;1.73;;;14.10;99.90;;;;;;5131285;27;20461;-66
2022/09/28 09:52:53;;;;;;;1.50;1.40;;;14.20;99.90;;;;;;5122008;27;20623;-66
2022/09/28 09:55:28;;;;;;;1.70;1.60;;;14.30;99.90;;;;;;5104619;27;20842;-65
2022/09/28 09:58:09;;;;;;;2.10;1.73;;;14.30;99.90;;;;;;5130655;27;20566;-66
2022/09/28 10:00:42;;;;;;;1.63;1.53;;;14.30;99.90;;;;;;5127008;27;20576;-66
2022/09/28 10:03:22;;;;;;;1.27;1.10;;;14.40;99.90;;;;;;5129023;27;20544;-65
2022/09/28 10:05:58;;;;;;;1.97;1.40;;;14.30;99.90;;;;;;5134069;27;20478;-66
2022/09/28 10:08:33;;;;;;;2.77;1.30;;;14.20;99.90;;;;;;5130911;27;20537;-65
2022/09/28 10:11:20;;;;;;;1.53;1.43;;;14.20;99.90;;;;;;5111039;27;20485;-66
2022/09/28 10:13:52;;;;;;;1.43;1.30;;;14.30;99.90;;;;;;5127939;27;20465;-66
2022/09/28 10:16:23;;;;;;;3.13;1.57;;;14.30;99.90;;;;;;5127243;27;20526;-66
2022/09/28 10:18:54;;;;;;;1.67;1.50;;;14.30;99.90;;;;;;5134683;27;20849;-66
2022/09/28 10:21:25;;;;;;;1.77;1.63;;;14.30;99.90;;;;;;5134361;27;20525;-66
2022/09/28 10:23:59;;;;;;;2.83;2.00;;;14.30;99.90;;;;;;5119076;27;20450;-66
2022/09/28 10:26:36;;;;;;;1.90;1.53;;;14.30;99.90;;;;;;5106358;27;20474;-66
2022/09/28 10:29:16;;;;;;;3.07;1.80;;;14.30;99.90;;;;;;5103096;28;20493;-66
2022/09/28 10:31:48;;;;;;;1.80;1.43;;;14.30;99.90;;;;;;5123603;27;20465;-66
2022/09/28 10:34:25;;;;;;;2.23;2.03;;;14.40;99.90;;;;;;5124808;27;20458;-66
2022/09/28 10:36:59;;;;;;;1.97;1.60;;;14.30;99.90;;;;;;5135119;27;20490;-66
2022/09/28 10:39:35;;;;;;;1.97;1.77;;;14.30;99.90;;;;;;5134413;27;20455;-66
2022/09/28 10:42:09;;;;;;;2.33;1.90;;;14.30;99.90;;;;;;5137239;27;20454;-66
2022/09/28 10:44:55;;;;;;;2.30;1.70;;;14.30;99.90;;;;;;5126186;27;20456;-66
2022/09/28 10:47:30;;;;;;;1.60;1.50;;;14.30;99.90;;;;;;5124298;27;20520;-66
2022/09/28 10:50:01;;;;;;;1.77;1.50;;;14.30;99.90;;;;;;5135155;27;20468;-66
2022/09/28 10:52:34;;;;;;;2.63;1.83;;;14.40;99.90;;;;;;5134053;27;20461;-66
2022/09/28 10:55:26;;;;;;;1.83;1.73;;;14.40;99.90;;;;;;5132065;27;20453;-65
2022/09/28 10:57:57;;;;;;;1.73;1.60;;;14.50;99.90;;;;;;5129072;27;20480;-65
2022/09/28 11:00:40;;;;;;;1.60;1.50;;;14.60;99.90;;;;;;5132714;27;20489;-65
2022/09/28 11:03:20;;;;;;;1.63;1.53;;;14.60;99.90;;;;;;5130173;27;20517;-65
2022/09/28 11:05:59;;;;;;;1.60;1.43;;;14.60;99.90;;;;;;5126527;27;20490;-67
2022/09/28 11:08:33;;;;;;;2.03;1.63;;;14.60;99.90;;;;;;5125037;28;20819;-67
2022/09/28 11:11:07;;;;;;;1.60;1.43;;;14.60;99.90;;;;;;5127486;27;20453;-67
2022/09/28 11:13:47;;;;;;;2.53;1.83;;;14.60;99.90;;;;;;5125782;28;20461;-67
2022/09/28 11:16:27;;;;;;;1.50;1.40;;;14.60;99.90;;;;;;5109594;28;20543;-68
2022/09/28 11:18:59;;;;;;;1.67;1.57;;;14.60;99.90;;;;;;5125705;28;20476;-67
2022/09/28 11:21:32;;;;;;;3.77;1.90;;;14.70;99.90;;;;;;5140141;28;20448;-67
2022/09/28 11:24:08;;;;;;;1.90;1.37;;;14.60;99.90;;;;;;5116062;27;20512;-67
2022/09/28 11:26:43;;;;;;;2.07;1.57;;;14.70;99.90;;;;;;5133333;27;20456;-66
2022/09/28 11:29:25;;;;;;;2.00;1.67;;;14.70;99.90;;;;;;5123160;27;20452;-66
2022/09/28 11:32:02;;;;;;;2.03;1.80;;;14.80;99.90;;;;;;5121262;27;20466;-66
2022/09/28 11:34:37;;;;;;;1.83;1.73;;;14.80;99.90;;;;;;5115549;28;20462;-66
2022/09/28 11:37:54;;;;;;;2.47;1.70;;;14.90;99.90;;;;;;5128703;27;20432;-66
2022/09/28 11:40:39;;;;;;;2.13;1.80;;;14.80;99.90;;;;;;5124581;27;20838;-66
2022/09/28 11:43:15;;;;;;;1.93;1.83;;;14.80;99.90;;;;;;5121467;27;20467;-66
2022/09/28 11:45:56;;;;;;;2.53;1.77;;;14.70;99.90;;;;;;5133380;27;20941;-66
2022/09/28 11:48:35;;;;;;;3.40;2.20;;;14.80;99.90;;;;;;5144565;27;20501;-66
2022/09/28 11:51:12;;;;;;;2.37;2.17;;;14.80;99.90;;;;;;5146522;27;20444;-66
2022/09/28 11:53:49;;;;;;;2.17;1.97;;;14.70;99.90;;;;;;5146350;27;20452;-66
2022/09/28 11:56:31;;;;;;;2.70;1.90;;;14.70;99.90;;;;;;5145408;27;20497;-66
2022/09/28 11:59:06;;;;;;;5.43;2.07;;;14.70;99.90;;;;;;5146399;27;20480;-66
2022/09/28 12:01:43;;;;;;;1.63;1.50;;;14.60;99.90;;;;;;5146487;27;20469;-66
2022/09/28 12:04:21;;;;;;;2.07;1.63;;;14.60;99.90;;;;;;5139485;27;21055;-65
2022/09/28 12:06:57;;;;;;;2.63;2.43;;;14.60;99.90;;;;;;5145853;27;20419;-66
2022/09/28 12:09:36;;;;;;;1.87;1.77;;;14.70;99.90;;;;;;5146441;27;20474;-65
2022/09/28 12:12:19;;;;;;;2.50;1.53;;;14.70;99.90;;;;;;5146361;27;20470;-66
2022/09/28 12:14:53;;;;;;;1.83;1.70;;;14.60;99.90;;;;;;5146005;27;20507;-66
2022/09/28 12:17:29;;;;;;;4.50;1.90;;;14.60;99.90;;;;;;5139196;27;20456;-66
2022/09/28 12:20:11;;;;;;;2.30;2.10;;;14.60;99.90;;;;;;5140779;27;20588;-66
2022/09/28 12:22:46;;;;;;;2.23;2.03;;;14.70;99.90;;;;;;5140686;27;20464;-66
2022/09/28 12:25:22;;;;;;;2.40;2.03;;;14.60;99.90;;;;;;5117951;27;20491;-66
2022/09/28 12:27:57;;;;;;;2.10;1.80;;;14.70;99.90;;;;;;5113487;27;20427;-66
2022/09/28 12:30:33;;;;;;;2.87;1.97;;;14.70;99.90;;;;;;5127973;27;20460;-66
2022/09/28 12:33:10;;;;;;;2.27;2.07;;;14.70;99.90;;;;;;5143657;27;21127;-66
2022/09/28 12:35:57;;;;;;;2.50;1.90;;;14.60;99.90;;;;;;5136838;27;20485;-66
2022/09/28 12:38:42;;;;;;;2.43;2.10;;;14.60;99.90;;;;;;5117170;27;20480;-66
2022/09/28 12:41:32;;;;;;;2.30;1.80;;;14.60;99.90;;;;;;5131509;27;20448;-66
2022/09/28 12:44:24;;;;;;;2.27;1.80;;;14.60;99.90;;;;;;5136272;27;20478;-66
2022/09/28 12:47:17;;;;;;;3.10;1.77;;;14.50;99.90;;;;;;5115127;27;20478;-66
2022/09/28 12:50:00;;;;;;;2.70;1.87;;;14.60;99.90;;;;;;5129039;27;20492;-66
2022/09/28 12:53:08;;;;;;;2.40;2.20;;;14.60;99.90;;;;;;5130259;27;20486;-66
2022/09/28 12:55:55;;;;;;;2.50;2.03;;;14.70;99.90;;;;;;5128069;27;20456;-66
2022/09/28 12:58:54;;;;;;;2.57;2.10;;;14.70;99.90;;;;;;5115381;27;20464;-66
2022/09/28 13:01:40;;;;;;;1.80;1.70;;;14.70;99.90;;;;;;5128247;27;20461;-66
2022/09/28 13:04:29;;;;;;;2.83;2.47;;;14.80;99.90;;;;;;5130097;27;20488;-66
2022/09/28 13:07:05;;;;;;;2.47;2.27;;;14.70;99.90;;;;;;5122869;28;20457;-66
2022/09/28 13:09:52;;;;;;;3.10;2.17;;;14.70;99.90;;;;;;5127519;27;20448;-66
2022/09/28 13:12:33;;;;;;;2.80;2.37;;;14.80;99.90;;;;;;5135301;27;20514;-66
2022/09/28 13:15:33;;;;;;;2.33;2.03;;;14.80;99.90;;;;;;5124096;27;20453;-67
2022/09/28 13:18:13;;;;;;;2.20;2.00;;;14.80;99.90;;;;;;5126693;27;20456;-67
2022/09/28 13:20:55;;;;;;;3.10;1.70;;;14.80;99.90;;;;;;5125945;27;20513;-66
2022/09/28 13:23:29;;;;;;;3.37;1.93;;;14.80;99.90;;;;;;5127495;27;20506;-66
2022/09/28 13:26:10;;;;;;;2.30;2.10;;;14.70;99.90;;;;;;5139058;27;20452;-66
2022/09/28 13:28:42;;;;;;;2.37;2.17;;;14.70;99.90;;;;;;5131628;27;20469;-66
2022/09/28 13:31:13;;;;;;;2.90;2.10;;;14.80;99.90;;;;;;5141544;27;20461;-66
2022/09/28 13:33:46;;;;;;;2.63;2.43;;;14.80;99.90;;;;;;5132825;27;20462;-66
2022/09/28 13:36:37;;;;;;;2.30;2.10;;;14.90;99.90;;;;;;5122458;27;20889;-67
2022/09/28 13:39:38;;;;;;;3.37;3.03;;;14.90;99.90;;;;;;5130362;27;20536;-67
2022/09/28 13:42:12;;;;;;;2.50;1.97;;;14.90;99.90;;;;;;5105974;27;20474;-66